createdAt,value
2019-01-12T00:00:11.972Z,7.62
2019-01-12T00:02:40.540Z,7.63
2019-01-12T00:05:09.337Z,7.63
2019-01-12T00:07:38.005Z,7.64
2019-01-12T00:10:08.887Z,7.66
2019-01-12T00:12:37.374Z,7.65
2019-01-12T00:15:07.785Z,7.61
2019-01-12T00:17:36.191Z,7.61
2019-01-12T00:20:07.096Z,7.61
2019-01-12T00:22:35.593Z,7.60
2019-01-12T00:25:05.971Z,7.55
2019-01-12T00:27:36.218Z,7.59
2019-01-12T00:30:07.676Z,7.59
2019-01-12T00:32:36.160Z,7.61
2019-01-12T00:35:06.368Z,7.66
2019-01-12T00:37:34.798Z,7.69
2019-01-12T00:40:03.477Z,7.68
2019-01-12T00:42:31.987Z,7.66
2019-01-12T00:45:03.273Z,7.65
2019-01-12T00:47:32.786Z,7.64
2019-01-12T00:50:01.352Z,7.63
2019-01-12T00:52:29.783Z,7.62
2019-01-12T00:54:58.253Z,7.62
2019-01-12T00:57:26.749Z,7.63
2019-01-12T00:59:55.187Z,7.61
2019-01-12T01:02:23.608Z,7.57
2019-01-12T01:04:52.175Z,7.54
2019-01-12T01:07:28.296Z,7.51
2019-01-12T01:09:56.901Z,7.50
2019-01-12T01:12:25.337Z,7.46
2019-01-12T01:14:54.003Z,7.43
2019-01-12T01:17:22.580Z,7.39
2019-01-12T01:19:51.080Z,7.39
2019-01-12T01:22:19.620Z,7.41
2019-01-12T01:24:48.118Z,7.39
2019-01-12T01:27:16.690Z,7.39
2019-01-12T01:29:45.228Z,7.42
2019-01-12T01:32:13.755Z,7.43
2019-01-12T01:34:42.747Z,7.41
2019-01-12T01:37:11.303Z,7.41
2019-01-12T01:39:39.886Z,7.41
2019-01-12T01:42:08.425Z,7.41
2019-01-12T01:44:36.837Z,7.42
2019-01-12T01:47:05.430Z,7.41
2019-01-12T01:49:33.872Z,7.40
2019-01-12T01:52:02.562Z,7.39
2019-01-12T01:54:31.177Z,7.36
2019-01-12T01:56:59.751Z,7.32
2019-01-12T01:59:28.208Z,7.30
2019-01-12T02:01:56.828Z,7.26
2019-01-12T02:04:25.375Z,7.28
2019-01-12T02:06:53.894Z,7.30
2019-01-12T02:09:22.489Z,7.31
2019-01-12T02:11:51.049Z,7.33
2019-01-12T02:14:19.647Z,7.33
2019-01-12T02:16:48.135Z,7.32
2019-01-12T02:19:16.682Z,7.31
2019-01-12T02:21:45.171Z,7.32
2019-01-12T02:24:13.705Z,7.31
2019-01-12T02:26:42.197Z,7.31
2019-01-12T02:29:10.758Z,7.31
2019-01-12T02:31:39.334Z,7.30
2019-01-12T02:34:07.936Z,7.30
2019-01-12T02:36:39.056Z,7.31
2019-01-12T02:39:08.308Z,7.33
2019-01-12T02:41:36.762Z,7.32
2019-01-12T02:44:05.416Z,7.31
2019-01-12T02:46:33.871Z,7.33
2019-01-12T02:49:02.297Z,7.31
2019-01-12T02:51:31.328Z,7.31
2019-01-12T02:53:59.846Z,7.31
2019-01-12T02:56:28.441Z,7.31
2019-01-12T02:58:56.972Z,7.31
2019-01-12T03:01:25.475Z,7.31
2019-01-12T03:03:53.894Z,7.32
2019-01-12T03:06:22.504Z,7.31
2019-01-12T03:08:50.935Z,7.33
2019-01-12T03:11:19.510Z,7.35
2019-01-12T03:13:48.079Z,7.35
2019-01-12T03:16:16.674Z,7.35
2019-01-12T03:18:45.087Z,7.32
2019-01-12T03:21:13.535Z,7.29
2019-01-12T03:23:41.984Z,7.28
2019-01-12T03:26:10.504Z,7.26
2019-01-12T03:28:39.131Z,7.24
2019-01-12T03:31:07.624Z,7.24
2019-01-12T03:33:36.176Z,7.24
2019-01-12T03:36:04.739Z,7.24
2019-01-12T03:38:33.265Z,7.28
2019-01-12T03:41:01.676Z,7.28
2019-01-12T03:43:30.126Z,7.27
2019-01-12T03:45:58.692Z,7.25
2019-01-12T03:48:27.211Z,7.29
2019-01-12T03:50:55.638Z,7.29
2019-01-12T03:53:24.200Z,7.32
2019-01-12T03:55:52.675Z,7.29
2019-01-12T03:58:21.287Z,7.31
2019-01-12T04:00:49.784Z,7.29
2019-01-12T04:03:18.374Z,7.30
2019-01-12T04:05:46.861Z,7.31
2019-01-12T04:08:15.313Z,7.29
2019-01-12T04:10:43.801Z,7.27
2019-01-12T04:13:12.348Z,7.24
2019-01-12T04:15:40.843Z,7.23
2019-01-12T04:18:09.347Z,7.25
2019-01-12T04:20:37.831Z,7.24
2019-01-12T04:23:06.248Z,7.22
2019-01-12T04:25:34.849Z,7.25
2019-01-12T04:28:03.288Z,7.26
2019-01-12T04:30:31.729Z,7.25
2019-01-12T04:33:00.152Z,7.26
2019-01-12T04:35:28.611Z,7.24
2019-01-12T04:37:57.052Z,7.23
2019-01-12T04:40:25.484Z,7.23
2019-01-12T04:42:53.909Z,7.21
2019-01-12T04:45:22.466Z,7.21
2019-01-12T04:47:50.916Z,7.24
2019-01-12T04:50:19.603Z,7.21
2019-01-12T04:52:48.041Z,7.19
2019-01-12T04:55:16.831Z,7.19
2019-01-12T04:57:45.344Z,7.16
2019-01-12T05:00:15.864Z,7.17
2019-01-12T05:02:44.458Z,7.18
2019-01-12T05:05:13.087Z,7.18
2019-01-12T05:07:41.809Z,7.16
2019-01-12T05:10:11.991Z,7.15
2019-01-12T05:12:40.410Z,7.11
2019-01-12T05:15:13.864Z,7.12
2019-01-12T05:17:42.452Z,7.10
2019-01-12T05:20:18.599Z,7.11
2019-01-12T05:22:47.304Z,7.11
2019-01-12T05:25:16.259Z,7.09
2019-01-12T05:27:44.861Z,7.08
2019-01-12T05:30:17.109Z,7.09
2019-01-12T05:32:45.812Z,7.08
2019-01-12T05:35:14.301Z,7.10
2019-01-12T05:37:42.763Z,7.10
2019-01-12T05:40:11.551Z,7.11
2019-01-12T05:42:40.012Z,7.10
2019-01-12T05:45:10.697Z,7.10
2019-01-12T05:47:39.498Z,7.08
2019-01-12T05:50:10.256Z,7.09
2019-01-12T05:52:39.008Z,7.08
2019-01-12T05:55:08.525Z,7.11
2019-01-12T05:57:37.123Z,7.15
2019-01-12T06:00:11.264Z,7.15
2019-01-12T06:02:39.704Z,7.16
2019-01-12T06:05:08.374Z,7.16
2019-01-12T06:07:37.072Z,7.17
2019-01-12T06:10:08.624Z,7.18
2019-01-12T06:12:37.094Z,7.19
2019-01-12T06:15:08.523Z,7.19
2019-01-12T06:17:37.012Z,7.19
2019-01-12T06:20:08.700Z,7.19
2019-01-12T06:22:37.293Z,7.18
2019-01-12T06:25:05.961Z,7.18
2019-01-12T06:27:34.401Z,7.20
2019-01-12T06:30:07.131Z,7.20
2019-01-12T06:32:35.644Z,7.20
2019-01-12T06:35:05.128Z,7.18
2019-01-12T06:37:33.556Z,7.15
2019-01-12T06:40:02.034Z,7.13
2019-01-12T06:42:30.537Z,7.13
2019-01-12T06:44:59.106Z,7.14
2019-01-12T06:47:27.541Z,7.16
2019-01-12T06:49:55.984Z,7.16
2019-01-12T06:52:24.466Z,7.13
2019-01-12T06:54:52.947Z,7.08
2019-01-12T06:57:21.346Z,7.10
2019-01-12T06:59:49.791Z,7.10
2019-01-12T07:02:18.206Z,7.12
2019-01-12T07:04:46.664Z,7.14
2019-01-12T07:07:15.091Z,7.15
2019-01-12T07:09:43.543Z,7.13
2019-01-12T07:12:11.959Z,7.11
2019-01-12T07:14:40.483Z,7.09
2019-01-12T07:17:09.023Z,7.09
2019-01-12T07:19:37.557Z,7.11
2019-01-12T07:22:06.151Z,7.13
2019-01-12T07:24:34.659Z,7.09
2019-01-12T07:27:03.100Z,7.10
2019-01-12T07:29:31.566Z,7.11
2019-01-12T07:32:00.039Z,7.08
2019-01-12T07:34:28.538Z,7.05
2019-01-12T07:36:57.063Z,7.02
2019-01-12T07:39:25.577Z,7.01
2019-01-12T07:41:54.030Z,7.01
2019-01-12T07:44:22.491Z,7.00
2019-01-12T07:46:51.075Z,7.02
2019-01-12T07:49:19.516Z,7.04
2019-01-12T07:51:47.963Z,7.03
2019-01-12T07:54:16.426Z,7.05
2019-01-12T07:56:44.897Z,7.03
2019-01-12T07:59:13.328Z,7.05
2019-01-12T08:01:41.939Z,7.06
2019-01-12T08:04:10.370Z,7.06
2019-01-12T08:06:38.911Z,7.06
2019-01-12T08:09:08.928Z,7.04
2019-01-12T08:11:37.347Z,7.06
2019-01-12T08:14:05.868Z,7.06
2019-01-12T08:16:34.463Z,7.08
2019-01-12T08:19:02.978Z,7.08
2019-01-12T08:21:31.393Z,7.10
2019-01-12T08:23:59.869Z,7.16
2019-01-12T08:26:31.352Z,7.18
2019-01-12T08:28:58.453Z,7.19
2019-01-12T08:31:26.869Z,7.18
2019-01-12T08:33:55.388Z,7.20
2019-01-12T08:36:23.807Z,7.18
2019-01-12T08:38:52.253Z,7.17
2019-01-12T08:41:20.687Z,7.19
2019-01-12T08:43:49.144Z,7.18
2019-01-12T08:46:17.713Z,7.19
2019-01-12T08:48:46.197Z,7.20
2019-01-12T08:51:14.698Z,7.21
2019-01-12T08:53:43.180Z,7.21
2019-01-12T08:56:11.677Z,7.20
2019-01-12T08:58:40.234Z,7.20
2019-01-12T09:01:08.800Z,7.24
2019-01-12T09:03:37.247Z,7.25
2019-01-12T09:06:06.245Z,7.26
2019-01-12T09:08:34.756Z,7.25
2019-01-12T09:11:03.343Z,7.26
2019-01-12T09:13:31.835Z,7.29
2019-01-12T09:16:00.396Z,7.32
2019-01-12T09:18:28.877Z,7.36
2019-01-12T09:20:57.336Z,7.39
2019-01-12T09:23:25.858Z,7.39
2019-01-12T09:25:54.399Z,7.40
2019-01-12T09:28:23.055Z,7.43
2019-01-12T09:30:51.633Z,7.44
2019-01-12T09:33:20.126Z,7.43
2019-01-12T09:35:48.727Z,7.45
2019-01-12T09:38:17.227Z,7.48
2019-01-12T09:40:45.769Z,7.50
2019-01-12T09:43:14.769Z,7.53
2019-01-12T09:45:43.245Z,7.52
2019-01-12T09:48:12.242Z,7.50
2019-01-12T09:50:40.750Z,7.48
2019-01-12T09:53:09.193Z,7.48
2019-01-12T09:55:37.615Z,7.50
2019-01-12T09:58:06.228Z,7.49
2019-01-12T10:00:34.660Z,7.49
2019-01-12T10:03:03.192Z,7.48
2019-01-12T10:05:31.632Z,7.47
2019-01-12T10:08:00.102Z,7.47
2019-01-12T10:10:28.551Z,7.49
2019-01-12T10:12:57.179Z,7.47
2019-01-12T10:15:25.801Z,7.46
2019-01-12T10:17:54.233Z,7.43
2019-01-12T10:20:22.851Z,7.44
2019-01-12T10:22:51.334Z,7.44
2019-01-12T10:25:20.024Z,7.46
2019-01-12T10:27:48.443Z,7.50
2019-01-12T10:30:19.697Z,7.50
2019-01-12T10:32:48.195Z,7.50
2019-01-12T10:35:16.900Z,7.55
2019-01-12T10:37:45.582Z,7.56
2019-01-12T10:40:16.475Z,7.56
2019-01-12T10:42:45.164Z,7.59
2019-01-12T10:45:15.962Z,7.56
2019-01-12T10:47:44.836Z,7.59
2019-01-12T10:50:19.056Z,7.58
2019-01-12T10:52:47.761Z,7.58
2019-01-12T10:55:16.504Z,7.55
2019-01-12T10:57:44.984Z,7.56
2019-01-12T11:00:16.871Z,7.60
2019-01-12T11:02:45.589Z,7.62
2019-01-12T11:05:14.157Z,7.64
2019-01-12T11:07:42.758Z,7.64
2019-01-12T11:10:13.065Z,7.61
2019-01-12T11:12:41.644Z,7.57
2019-01-12T11:15:13.784Z,7.53
2019-01-12T11:17:42.476Z,7.55
2019-01-12T11:20:11.456Z,7.57
2019-01-12T11:22:40.145Z,7.57
2019-01-12T11:25:11.802Z,7.57
2019-01-12T11:27:40.467Z,7.59
2019-01-12T11:30:11.889Z,7.61
2019-01-12T11:32:40.427Z,7.60
2019-01-12T11:35:10.379Z,7.59
2019-01-12T11:37:39.075Z,7.60
2019-01-12T11:40:13.255Z,7.61
2019-01-12T11:42:41.974Z,7.65
2019-01-12T11:45:10.647Z,7.66
2019-01-12T11:47:39.117Z,7.65
2019-01-12T11:50:10.655Z,7.66
2019-01-12T11:52:39.172Z,7.67
2019-01-12T11:55:11.171Z,7.69
2019-01-12T11:57:39.775Z,7.70
2019-01-12T12:00:25.847Z,7.70
2019-01-12T12:02:54.759Z,7.67
2019-01-12T12:05:23.727Z,7.64
2019-01-12T12:07:52.943Z,7.64
2019-01-12T12:10:21.883Z,7.60
2019-01-12T12:12:50.387Z,7.62
2019-01-12T12:15:21.916Z,7.61
2019-01-12T12:17:50.406Z,7.60
2019-01-12T12:20:25.922Z,7.56
2019-01-12T12:22:54.651Z,7.54
2019-01-12T12:25:23.261Z,7.54
2019-01-12T12:27:51.787Z,7.52
2019-01-12T12:30:25.721Z,7.53
2019-01-12T12:32:54.487Z,7.49
2019-01-12T12:35:23.012Z,7.44
2019-01-12T12:37:52.700Z,7.45
2019-01-12T12:40:22.647Z,7.46
2019-01-12T12:42:51.139Z,7.46
2019-01-12T12:45:25.560Z,7.48
2019-01-12T12:47:54.130Z,7.46
2019-01-12T12:50:22.672Z,7.48
2019-01-12T12:52:51.132Z,7.48
2019-01-12T12:55:19.932Z,7.49
2019-01-12T12:57:48.423Z,7.48
2019-01-12T13:00:22.612Z,7.48
2019-01-12T13:02:51.199Z,7.50
2019-01-12T13:05:19.824Z,7.51
2019-01-12T13:07:48.450Z,7.49
2019-01-12T13:10:19.303Z,7.47
2019-01-12T13:12:47.914Z,7.47
2019-01-12T13:15:16.704Z,7.47
2019-01-12T13:17:45.426Z,7.47
2019-01-12T13:20:16.383Z,7.47
2019-01-12T13:22:45.007Z,7.45
2019-01-12T13:25:13.641Z,7.47
2019-01-12T13:27:42.299Z,7.50
2019-01-12T13:30:16.621Z,7.49
2019-01-12T13:32:45.345Z,7.47
2019-01-12T13:35:14.035Z,7.47
2019-01-12T13:37:42.752Z,7.47
2019-01-12T13:40:14.233Z,7.47
2019-01-12T13:42:43.238Z,7.47
2019-01-12T13:45:14.684Z,7.47
2019-01-12T13:47:43.223Z,7.46
2019-01-12T13:50:14.273Z,7.48
2019-01-12T13:52:42.844Z,7.53
2019-01-12T13:55:13.357Z,7.53
2019-01-12T13:57:47.325Z,7.55
2019-01-12T14:00:18.661Z,7.56
2019-01-12T14:02:47.464Z,7.56
2019-01-12T14:05:15.930Z,7.57
2019-01-12T14:07:44.381Z,7.57
2019-01-12T14:10:16.121Z,7.58
2019-01-12T14:12:44.596Z,7.60
2019-01-12T14:15:20.281Z,7.60
2019-01-12T14:17:48.871Z,7.59
2019-01-12T14:20:22.850Z,7.57
2019-01-12T14:22:51.332Z,7.58
2019-01-12T14:25:19.859Z,7.59
2019-01-12T14:27:54.212Z,7.59
2019-01-12T14:30:20.030Z,7.63
2019-01-12T14:32:48.793Z,7.64
2019-01-12T14:35:18.585Z,7.65
2019-01-12T14:37:47.253Z,7.65
2019-01-12T14:40:18.120Z,7.66
2019-01-12T14:42:46.796Z,7.68
2019-01-12T14:45:18.100Z,7.69
2019-01-12T14:47:46.614Z,7.69
2019-01-12T14:50:15.203Z,7.68
2019-01-12T14:52:43.774Z,7.69
2019-01-12T14:55:15.379Z,7.71
2019-01-12T14:57:44.013Z,7.69
2019-01-12T15:00:17.819Z,7.71
2019-01-12T15:02:46.456Z,7.69
2019-01-12T15:05:17.536Z,7.65
2019-01-12T15:07:46.551Z,7.65
2019-01-12T15:10:17.117Z,7.66
2019-01-12T15:12:46.010Z,7.66
2019-01-12T15:15:16.312Z,7.70
2019-01-12T15:17:44.898Z,7.71
2019-01-12T15:20:18.712Z,7.72
2019-01-12T15:22:47.287Z,7.73
2019-01-12T15:25:15.869Z,7.75
2019-01-12T15:27:44.538Z,7.72
2019-01-12T15:30:16.047Z,7.73
2019-01-12T15:32:44.551Z,7.73
2019-01-12T15:35:13.205Z,7.74
2019-01-12T15:37:43.386Z,7.75
2019-01-12T15:40:17.200Z,7.78
2019-01-12T15:42:45.787Z,7.80
2019-01-12T15:45:19.610Z,7.82
2019-01-12T15:47:48.123Z,7.86
2019-01-12T15:50:18.693Z,7.87
2019-01-12T15:52:47.228Z,7.90
2019-01-12T15:55:15.807Z,7.93
2019-01-12T15:57:44.237Z,7.92
2019-01-12T16:00:20.924Z,7.94
2019-01-12T16:02:49.467Z,7.95
2019-01-12T16:05:17.966Z,7.94
2019-01-12T16:07:46.693Z,7.95
2019-01-12T16:10:17.415Z,7.96
2019-01-12T16:12:45.922Z,7.97
2019-01-12T16:15:17.362Z,7.99
2019-01-12T16:17:46.017Z,8.00
2019-01-12T16:20:17.505Z,8.02
2019-01-12T16:22:46.050Z,8.03
2019-01-12T16:25:14.743Z,8.03
2019-01-12T16:27:43.277Z,8.03
2019-01-12T16:30:17.656Z,8.04
2019-01-12T16:32:46.172Z,8.07
2019-01-12T16:35:15.552Z,8.07
2019-01-12T16:37:44.346Z,8.06
2019-01-12T16:40:15.734Z,8.07
2019-01-12T16:42:44.484Z,8.08
2019-01-12T16:45:13.198Z,8.07
2019-01-12T16:47:41.630Z,8.08
2019-01-12T16:50:10.140Z,8.06
2019-01-12T16:52:38.614Z,8.06
2019-01-12T16:55:10.296Z,8.07
2019-01-12T16:57:38.736Z,8.09
2019-01-12T17:00:10.251Z,8.09
2019-01-12T17:02:38.807Z,8.10
2019-01-12T17:05:07.396Z,8.11
2019-01-12T17:07:36.700Z,8.10
2019-01-12T17:10:08.225Z,8.11
2019-01-12T17:12:36.717Z,8.11
2019-01-12T17:15:08.083Z,8.11
2019-01-12T17:17:36.665Z,8.12
2019-01-12T17:20:08.151Z,8.13
2019-01-12T17:22:36.606Z,8.12
2019-01-12T17:25:06.404Z,8.12
2019-01-12T17:27:34.938Z,8.13
2019-01-12T17:30:04.234Z,8.15
2019-01-12T17:32:32.698Z,8.13
2019-01-12T17:35:01.192Z,8.12
2019-01-12T17:37:29.651Z,8.11
2019-01-12T17:39:58.101Z,8.13
2019-01-12T17:42:26.565Z,8.12
2019-01-12T17:44:55.051Z,8.13
2019-01-12T17:47:23.521Z,8.16
2019-01-12T17:49:52.035Z,8.18
2019-01-12T17:52:20.553Z,8.17
2019-01-12T17:54:49.025Z,8.14
2019-01-12T17:57:17.517Z,8.10
2019-01-12T17:59:45.943Z,8.04
2019-01-12T18:02:14.472Z,8.02
2019-01-12T18:04:42.887Z,8.02
2019-01-12T18:07:11.427Z,8.02
2019-01-12T18:09:39.838Z,8.03
2019-01-12T18:12:08.282Z,8.05
2019-01-12T18:14:36.708Z,8.07
2019-01-12T18:17:05.260Z,8.07
2019-01-12T18:19:33.694Z,8.07
2019-01-12T18:22:02.118Z,8.08
2019-01-12T18:24:30.551Z,8.08
2019-01-12T18:26:58.975Z,8.12
2019-01-12T18:29:27.429Z,8.11
2019-01-12T18:31:55.917Z,8.09
2019-01-12T18:34:24.832Z,8.08
2019-01-12T18:36:53.252Z,8.07
2019-01-12T18:39:21.717Z,8.07
2019-01-12T18:41:50.156Z,8.07
2019-01-12T18:44:18.660Z,8.02
2019-01-12T18:46:47.144Z,8.04
2019-01-12T18:49:15.613Z,8.04
2019-01-12T18:51:44.024Z,8.05
2019-01-12T18:54:12.570Z,7.99
2019-01-12T18:56:41.546Z,7.94
2019-01-12T18:59:10.165Z,7.92
2019-01-12T19:01:38.824Z,7.92
2019-01-12T19:04:07.307Z,7.93
2019-01-12T19:06:35.750Z,7.93
2019-01-12T19:09:07.055Z,7.95
2019-01-12T19:11:35.588Z,7.96
2019-01-12T19:14:05.618Z,7.95
2019-01-12T19:16:34.070Z,7.96
2019-01-12T19:19:02.499Z,7.95
2019-01-12T19:21:30.945Z,7.94
2019-01-12T19:23:59.391Z,7.96
2019-01-12T19:26:27.846Z,7.97
2019-01-12T19:28:56.269Z,7.96
2019-01-12T19:31:24.723Z,7.99
2019-01-12T19:33:53.179Z,8.02
2019-01-12T19:36:21.780Z,8.03
2019-01-12T19:38:50.242Z,8.00
2019-01-12T19:41:18.835Z,8.01
2019-01-12T19:43:47.272Z,7.98
2019-01-12T19:46:15.697Z,7.98
2019-01-12T19:48:44.139Z,7.99
2019-01-12T19:51:12.667Z,7.97
2019-01-12T19:53:41.197Z,7.96
2019-01-12T19:56:09.686Z,7.92
2019-01-12T19:58:38.160Z,7.91
2019-01-12T20:01:06.661Z,7.91
2019-01-12T20:03:35.102Z,7.91
2019-01-12T20:06:03.537Z,7.91
2019-01-12T20:08:32.050Z,7.88
2019-01-12T20:11:00.491Z,7.86
2019-01-12T20:13:29.019Z,7.86
2019-01-12T20:15:57.427Z,7.85
2019-01-12T20:18:26.017Z,7.85
2019-01-12T20:20:54.678Z,7.83
2019-01-12T20:23:23.137Z,7.82
2019-01-12T20:25:51.766Z,7.80
2019-01-12T20:28:20.243Z,7.83
2019-01-12T20:31:08.392Z,7.84
2019-01-12T20:33:57.779Z,7.84
2019-01-12T20:36:41.282Z,7.85
2019-01-12T20:39:27.914Z,7.86
2019-01-12T20:42:36.243Z,7.85
2019-01-12T20:45:33.795Z,7.84
2019-01-12T20:48:08.972Z,7.84
2019-01-12T20:50:44.683Z,7.88
2019-01-12T20:53:21.972Z,7.89
2019-01-12T20:55:53.453Z,7.89
2019-01-12T20:58:30.053Z,7.88
2019-01-12T21:01:21.505Z,7.88
2019-01-12T21:04:02.062Z,7.88
2019-01-12T21:06:39.321Z,7.85
2019-01-12T21:09:10.805Z,7.84
2019-01-12T21:11:42.354Z,7.84
2019-01-12T21:14:26.019Z,7.85
2019-01-12T21:16:54.573Z,7.86
2019-01-12T21:19:22.980Z,7.86
2019-01-12T21:21:51.523Z,7.87
2019-01-12T21:24:20.012Z,7.89
2019-01-12T21:26:48.472Z,7.90
2019-01-12T21:29:16.875Z,7.89
2019-01-12T21:31:45.376Z,7.92
2019-01-12T21:34:13.919Z,7.92
2019-01-12T21:36:42.462Z,7.93
2019-01-12T21:39:11.039Z,7.88
2019-01-12T21:41:39.541Z,7.87
2019-01-12T21:44:08.131Z,7.85
2019-01-12T21:46:36.562Z,7.87
2019-01-12T21:49:05.145Z,7.89
2019-01-12T21:51:33.713Z,7.90
2019-01-12T21:54:02.399Z,7.90
2019-01-12T21:56:30.832Z,7.89
2019-01-12T21:58:59.381Z,7.87
2019-01-12T22:01:28.021Z,7.89
2019-01-12T22:03:56.562Z,7.89
2019-01-12T22:06:25.129Z,7.88
2019-01-12T22:08:53.599Z,7.90
2019-01-12T22:11:22.161Z,7.91
2019-01-12T22:13:50.709Z,7.93
2019-01-12T22:16:19.222Z,7.96
2019-01-12T22:18:47.897Z,7.96
2019-01-12T22:21:16.402Z,7.97
2019-01-12T22:23:45.135Z,7.98
2019-01-12T22:26:13.577Z,7.99
2019-01-12T22:28:42.003Z,8.01
2019-01-12T22:31:10.544Z,8.02
2019-01-12T22:33:38.952Z,8.03
2019-01-12T22:36:07.555Z,8.05
2019-01-12T22:38:35.969Z,8.03
2019-01-12T22:41:04.678Z,8.04
2019-01-12T22:43:33.109Z,8.05
2019-01-12T22:46:01.622Z,8.06
2019-01-12T22:48:30.131Z,8.08
2019-01-12T22:50:58.582Z,8.09
2019-01-12T22:53:27.083Z,8.11
2019-01-12T22:55:55.554Z,8.14
2019-01-12T22:58:23.969Z,8.13
2019-01-12T23:01:10.730Z,8.12
2019-01-12T23:03:40.956Z,8.13
2019-01-12T23:06:09.421Z,8.17
2019-01-12T23:08:37.832Z,8.16
2019-01-12T23:11:06.365Z,8.16
2019-01-12T23:13:34.858Z,8.18
2019-01-12T23:16:03.377Z,8.19
2019-01-12T23:18:31.879Z,8.20
2019-01-12T23:21:00.397Z,8.20
2019-01-12T23:23:28.835Z,8.20
2019-01-12T23:25:57.315Z,8.21
2019-01-12T23:28:25.775Z,8.21
2019-01-12T23:30:54.230Z,8.21
2019-01-12T23:33:23.192Z,8.21
2019-01-12T23:35:51.626Z,8.22
2019-01-12T23:38:20.141Z,8.24
2019-01-12T23:40:48.808Z,8.26
2019-01-12T23:43:17.340Z,8.24
2019-01-12T23:45:45.829Z,8.23
2019-01-12T23:48:14.286Z,8.24
2019-01-12T23:50:44.354Z,8.24
2019-01-12T23:53:13.477Z,8.23
2019-01-12T23:55:42.071Z,8.23
2019-01-12T23:58:10.605Z,8.23
